createdAt,value
2023-01-02T00:00:21.392Z,174.20
2023-01-02T00:02:56.105Z,156.67
2023-01-02T00:05:30.412Z,169.03
2023-01-02T00:08:04.424Z,159.30
2023-01-02T00:10:38.187Z,167.73
2023-01-02T00:13:12.164Z,161.00
2023-01-02T00:15:47.808Z,177.80
2023-01-02T00:18:22.218Z,170.67
2023-01-02T00:20:56.545Z,160.47
2023-01-02T00:23:30.801Z,171.07
2023-01-02T00:26:05.371Z,173.53
2023-01-02T00:28:40.677Z,167.90
2023-01-02T00:31:17.954Z,165.07
2023-01-02T00:33:51.794Z,165.83
2023-01-02T00:36:27.965Z,173.27
2023-01-02T00:39:02.081Z,174.93
2023-01-02T00:41:36.009Z,178.33
2023-01-02T00:44:09.931Z,170.83
2023-01-02T00:46:45.874Z,168.53
2023-01-02T00:49:19.743Z,173.13
2023-01-02T00:51:53.938Z,169.77
2023-01-02T00:54:28.106Z,167.53
2023-01-02T00:57:02.051Z,174.83
2023-01-02T00:59:35.888Z,171.57
2023-01-02T01:02:12.158Z,172.13
2023-01-02T01:04:46.256Z,168.80
2023-01-02T01:07:20.405Z,161.53
2023-01-02T01:09:54.676Z,157.73
2023-01-02T01:12:28.759Z,155.90
2023-01-02T01:15:02.601Z,157.37
2023-01-02T01:17:39.863Z,159.83
2023-01-02T01:20:14.709Z,152.07
2023-01-02T01:22:48.655Z,152.83
2023-01-02T01:25:22.578Z,162.77
2023-01-02T01:27:58.934Z,150.50
2023-01-02T01:30:33.171Z,150.73
2023-01-02T01:33:09.095Z,152.53
2023-01-02T01:35:44.163Z,158.93
2023-01-02T01:38:18.146Z,151.80
2023-01-02T01:40:52.203Z,146.43
2023-01-02T01:43:43.812Z,146.47
2023-01-02T01:46:27.232Z,151.23
2023-01-02T01:49:07.227Z,154.17
2023-01-02T01:51:43.825Z,145.00
2023-01-02T01:54:21.817Z,148.90
2023-01-02T01:57:01.351Z,152.93
2023-01-02T01:59:35.229Z,141.33
2023-01-02T02:02:10.140Z,145.60
2023-01-02T02:04:48.134Z,151.73
2023-01-02T02:07:22.417Z,146.07
2023-01-02T02:10:00.338Z,138.90
2023-01-02T02:12:34.963Z,148.10
2023-01-02T02:15:12.946Z,140.97
2023-01-02T02:17:54.251Z,149.13
2023-01-02T02:20:41.590Z,146.83
2023-01-02T02:23:55.251Z,144.63
2023-01-02T02:27:05.545Z,143.37
2023-01-02T02:30:12.983Z,143.67
2023-01-02T02:33:02.664Z,134.80
2023-01-02T02:35:50.724Z,138.27
2023-01-02T02:38:36.485Z,136.83
2023-01-02T02:41:18.006Z,131.20
2023-01-02T02:44:02.380Z,131.37
2023-01-02T02:46:47.474Z,137.33
2023-01-02T02:49:32.264Z,127.37
2023-01-02T02:52:11.784Z,127.90
2023-01-02T02:54:50.383Z,133.53
2023-01-02T02:57:27.195Z,131.37
2023-01-02T03:00:01.523Z,124.50
2023-01-02T03:02:37.447Z,128.67
2023-01-02T03:05:14.129Z,133.70
2023-01-02T03:07:57.272Z,127.63
2023-01-02T03:10:40.349Z,129.67
2023-01-02T03:13:22.293Z,132.70
2023-01-02T03:16:10.056Z,132.30
2023-01-02T03:18:52.234Z,130.73
2023-01-02T03:21:34.020Z,125.67
2023-01-02T03:24:12.919Z,132.00
2023-01-02T03:26:54.058Z,133.13
2023-01-02T03:29:34.504Z,129.77
2023-01-02T03:32:13.222Z,128.07
2023-01-02T03:34:51.833Z,131.63
2023-01-02T03:37:29.647Z,125.37
2023-01-02T03:40:07.883Z,130.93
2023-01-02T03:42:47.236Z,129.93
2023-01-02T03:45:26.501Z,128.77
2023-01-02T03:48:05.409Z,139.60
2023-01-02T03:50:48.926Z,132.90
2023-01-02T03:53:24.383Z,122.47
2023-01-02T03:56:08.321Z,121.97
2023-01-02T03:58:49.311Z,118.77
2023-01-02T04:01:36.564Z,123.33
2023-01-02T04:04:17.048Z,127.80
2023-01-02T04:06:57.823Z,124.63
2023-01-02T04:09:36.001Z,122.90
2023-01-02T04:12:15.160Z,130.63
2023-01-02T04:14:52.447Z,131.97
2023-01-02T04:17:29.321Z,123.87
2023-01-02T04:20:06.807Z,125.57
2023-01-02T04:22:47.390Z,131.90
2023-01-02T04:25:23.060Z,133.23
2023-01-02T04:28:05.185Z,136.50
2023-01-02T04:30:44.074Z,125.23
2023-01-02T04:33:19.042Z,125.50
2023-01-02T04:35:53.178Z,130.97
2023-01-02T04:38:28.942Z,136.13
2023-01-02T04:41:02.860Z,135.57
2023-01-02T04:43:36.793Z,130.47
2023-01-02T04:46:10.872Z,122.43
2023-01-02T04:48:44.899Z,126.27
2023-01-02T04:51:18.771Z,114.73
2023-01-02T04:53:55.788Z,116.93
2023-01-02T04:56:31.161Z,114.00
2023-01-02T04:59:07.278Z,111.97
2023-01-02T05:01:44.138Z,117.97
2023-01-02T05:04:24.600Z,112.37
2023-01-02T05:06:59.812Z,113.97
2023-01-02T05:09:39.118Z,107.77
2023-01-02T05:12:14.218Z,106.60
2023-01-02T05:14:50.504Z,100.93
2023-01-02T05:17:26.751Z,94.47
2023-01-02T05:20:02.821Z,90.80
2023-01-02T05:22:53.784Z,81.47
2023-01-02T05:25:33.175Z,93.73
2023-01-02T05:28:10.087Z,85.93
2023-01-02T05:30:45.571Z,96.23
2023-01-02T05:33:21.485Z,89.80
2023-01-02T05:35:57.650Z,83.47
2023-01-02T05:38:35.801Z,100.53
2023-01-02T05:41:14.237Z,93.00
2023-01-02T05:43:49.693Z,85.33
2023-01-02T05:46:26.570Z,97.30
2023-01-02T05:49:05.086Z,94.57
2023-01-02T05:51:41.447Z,86.87
2023-01-02T05:54:17.728Z,90.77
2023-01-02T05:56:56.088Z,86.70
2023-01-02T05:59:35.965Z,93.10
2023-01-02T06:02:12.484Z,99.87
2023-01-02T06:04:48.387Z,92.83
2023-01-02T06:07:24.918Z,92.07
2023-01-02T06:10:03.554Z,84.90
2023-01-02T06:12:41.304Z,90.23
2023-01-02T06:15:18.155Z,93.13
2023-01-02T06:17:54.808Z,90.97
2023-01-02T06:20:30.906Z,90.87
2023-01-02T06:23:07.019Z,94.90
2023-01-02T06:25:43.210Z,87.73
2023-01-02T06:28:21.523Z,89.60
2023-01-02T06:30:57.549Z,88.87
2023-01-02T06:33:34.703Z,92.47
2023-01-02T06:36:13.834Z,85.20
2023-01-02T06:38:50.288Z,84.63
2023-01-02T06:41:26.167Z,82.70
2023-01-02T06:44:05.448Z,81.27
2023-01-02T06:46:44.015Z,77.43
2023-01-02T06:49:19.941Z,74.27
2023-01-02T06:51:56.029Z,78.80
2023-01-02T06:54:31.400Z,83.50
2023-01-02T06:57:07.510Z,83.87
2023-01-02T06:59:45.269Z,82.97
2023-01-02T07:02:22.546Z,75.00
2023-01-02T07:05:00.375Z,75.30
2023-01-02T07:07:36.596Z,74.27
2023-01-02T07:10:13.450Z,76.57
2023-01-02T07:12:49.592Z,76.03
2023-01-02T07:15:31.494Z,76.60
2023-01-02T07:18:08.011Z,79.93
2023-01-02T07:20:43.955Z,76.70
2023-01-02T07:23:20.029Z,78.27
2023-01-02T07:25:59.890Z,86.37
2023-01-02T07:28:37.350Z,81.27
2023-01-02T07:31:18.170Z,81.73
2023-01-02T07:33:54.515Z,85.70
2023-01-02T07:36:33.193Z,80.10
2023-01-02T07:39:09.075Z,82.47
2023-01-02T07:41:45.570Z,78.77
2023-01-02T07:44:24.587Z,77.37
2023-01-02T07:47:02.837Z,82.57
2023-01-02T07:49:39.136Z,84.73
2023-01-02T07:52:17.789Z,84.33
2023-01-02T07:54:53.475Z,90.23
2023-01-02T07:57:29.465Z,82.97
2023-01-02T08:00:04.953Z,87.03
2023-01-02T08:02:51.789Z,86.30
2023-01-02T08:05:27.677Z,87.60
2023-01-02T08:08:03.764Z,84.43
2023-01-02T08:10:40.704Z,88.70
2023-01-02T08:13:17.558Z,92.67
2023-01-02T08:15:53.555Z,89.83
2023-01-02T08:18:32.228Z,84.53
2023-01-02T08:21:08.361Z,91.83
2023-01-02T08:23:44.569Z,92.63
2023-01-02T08:26:20.267Z,90.77
2023-01-02T08:29:01.138Z,89.00
2023-01-02T08:31:41.771Z,91.30
2023-01-02T08:34:21.769Z,87.50
2023-01-02T08:36:58.352Z,91.23
2023-01-02T08:39:34.626Z,90.43
2023-01-02T08:42:11.512Z,89.50
2023-01-02T08:44:47.421Z,89.87
2023-01-02T08:47:23.634Z,84.80
2023-01-02T08:50:01.360Z,94.53
2023-01-02T08:52:37.841Z,92.80
2023-01-02T08:55:15.246Z,92.17
2023-01-02T08:57:50.890Z,99.57
2023-01-02T09:00:27.259Z,93.63
2023-01-02T09:03:03.174Z,96.90
2023-01-02T09:05:43.103Z,95.87
2023-01-02T09:08:19.332Z,94.40
2023-01-02T09:10:56.266Z,92.53
2023-01-02T09:13:31.995Z,93.60
2023-01-02T09:16:07.536Z,95.57
2023-01-02T09:18:45.102Z,86.77
2023-01-02T09:21:23.792Z,94.93
2023-01-02T09:24:00.504Z,90.17
2023-01-02T09:26:36.551Z,97.17
2023-01-02T09:29:12.787Z,84.97
2023-01-02T09:31:48.769Z,87.03
2023-01-02T09:34:24.663Z,84.53
2023-01-02T09:37:04.198Z,91.17
2023-01-02T09:39:40.146Z,90.80
2023-01-02T09:42:20.546Z,95.67
2023-01-02T09:45:08.235Z,94.63
2023-01-02T09:47:46.349Z,90.63
2023-01-02T09:50:29.589Z,93.13
2023-01-02T09:53:09.085Z,101.83
2023-01-02T09:55:51.567Z,96.40
2023-01-02T09:58:45.965Z,94.70
2023-01-02T10:01:28.520Z,103.10
2023-01-02T10:04:12.475Z,98.90
2023-01-02T10:06:54.200Z,101.07
2023-01-02T10:09:41.419Z,96.57
2023-01-02T10:12:22.643Z,95.73
2023-01-02T10:15:02.608Z,106.13
2023-01-02T10:17:42.495Z,100.97
2023-01-02T10:20:29.449Z,105.90
2023-01-02T10:23:08.021Z,101.53
2023-01-02T10:25:53.142Z,103.73
2023-01-02T10:28:39.580Z,102.60
2023-01-02T10:31:19.693Z,104.43
2023-01-02T10:33:59.113Z,105.30
2023-01-02T10:36:41.610Z,108.23
2023-01-02T10:39:22.261Z,101.00
2023-01-02T10:42:03.356Z,104.17
2023-01-02T10:44:40.707Z,111.10
2023-01-02T10:47:24.886Z,106.53
2023-01-02T10:50:02.455Z,110.80
2023-01-02T10:52:40.547Z,114.37
2023-01-02T10:55:17.611Z,112.03
2023-01-02T10:57:56.514Z,113.33
2023-01-02T11:00:36.128Z,121.83
2023-01-02T11:03:21.185Z,104.30
2023-01-02T11:06:05.835Z,120.07
2023-01-02T11:09:03.646Z,118.90
2023-01-02T11:11:39.725Z,122.53
2023-01-02T11:14:21.731Z,127.77
2023-01-02T11:17:00.655Z,127.87
2023-01-02T11:19:44.252Z,114.57
2023-01-02T11:22:22.107Z,122.43
2023-01-02T11:25:04.088Z,124.23
2023-01-02T11:27:41.892Z,129.23
2023-01-02T11:30:34.337Z,126.03
2023-01-02T11:33:23.974Z,133.90
2023-01-02T11:36:01.338Z,117.33
2023-01-02T11:38:48.692Z,128.47
2023-01-02T11:41:54.447Z,130.33
2023-01-02T11:44:34.412Z,130.63
2023-01-02T11:47:15.667Z,133.23
2023-01-02T11:49:53.705Z,146.80
2023-01-02T11:52:36.048Z,135.27
2023-01-02T11:55:30.823Z,146.17
2023-01-02T11:58:15.898Z,139.33
2023-01-02T12:00:54.707Z,139.40
2023-01-02T12:03:36.629Z,134.00
2023-01-02T12:06:23.747Z,127.90
2023-01-02T12:09:11.129Z,123.97
2023-01-02T12:12:07.992Z,130.90
2023-01-02T12:14:59.807Z,140.40
2023-01-02T12:17:46.113Z,146.27
2023-01-02T12:20:43.141Z,130.07
2023-01-02T12:23:32.723Z,132.83
2023-01-02T12:26:14.495Z,142.37
2023-01-02T12:29:46.131Z,151.27
2023-01-02T12:32:54.237Z,134.43
2023-01-02T12:35:58.406Z,130.70
2023-01-02T12:38:45.760Z,144.47
2023-01-02T12:41:33.560Z,134.73
2023-01-02T12:44:47.763Z,128.93
2023-01-02T12:47:37.033Z,119.23
2023-01-02T12:50:48.568Z,120.53
2023-01-02T12:53:42.047Z,122.83
2023-01-02T12:56:26.083Z,127.07
2023-01-02T12:59:17.779Z,119.83
2023-01-02T13:02:01.789Z,128.90
2023-01-02T13:04:41.038Z,116.90
2023-01-02T13:07:25.182Z,122.43
2023-01-02T13:10:07.486Z,115.43
2023-01-02T13:12:46.653Z,113.33
2023-01-02T13:15:27.835Z,113.50
2023-01-02T13:18:16.557Z,121.20
2023-01-02T13:20:58.863Z,107.93
2023-01-02T13:23:45.621Z,117.87
2023-01-02T13:26:23.251Z,122.67
2023-01-02T13:29:10.290Z,123.13
2023-01-02T13:31:54.936Z,112.77
2023-01-02T13:34:34.877Z,113.40
2023-01-02T13:37:16.853Z,120.73
2023-01-02T13:39:58.341Z,111.00
2023-01-02T13:42:53.635Z,116.13
2023-01-02T13:45:33.489Z,109.97
2023-01-02T13:48:11.742Z,111.70
2023-01-02T13:50:54.786Z,112.40
2023-01-02T13:53:40.941Z,112.80
2023-01-02T13:56:22.216Z,121.93
2023-01-02T13:59:07.545Z,118.70
2023-01-02T14:02:22.981Z,120.80
2023-01-02T14:05:00.196Z,121.97
2023-01-02T14:07:53.479Z,123.77
2023-01-02T14:10:47.388Z,132.60
2023-01-02T14:13:38.880Z,128.73
2023-01-02T14:16:45.694Z,130.73
2023-01-02T14:19:28.210Z,140.73
2023-01-02T14:22:16.669Z,130.60
2023-01-02T14:24:55.349Z,129.73
2023-01-02T14:27:37.513Z,130.17
2023-01-02T14:30:23.572Z,130.30
2023-01-02T14:33:01.740Z,130.03
2023-01-02T14:35:41.289Z,143.60
2023-01-02T14:38:25.433Z,136.67
2023-01-02T14:41:23.035Z,135.03
2023-01-02T14:43:57.718Z,144.10
2023-01-02T14:46:39.896Z,141.07
2023-01-02T14:49:24.973Z,145.67
2023-01-02T14:52:11.706Z,145.23
2023-01-02T14:54:55.391Z,138.10
2023-01-02T14:57:38.455Z,147.87
2023-01-02T15:00:27.736Z,143.47
2023-01-02T15:03:23.231Z,138.97
2023-01-02T15:06:02.998Z,143.47
2023-01-02T15:08:46.651Z,144.17
2023-01-02T15:11:40.914Z,137.73
2023-01-02T15:14:23.845Z,142.43
2023-01-02T15:17:05.699Z,144.43
2023-01-02T15:19:44.961Z,140.60
2023-01-02T15:22:24.389Z,140.77
2023-01-02T15:25:02.246Z,138.43
2023-01-02T15:27:42.120Z,154.00
2023-01-02T15:30:31.639Z,147.37
2023-01-02T15:33:08.635Z,141.27
2023-01-02T15:35:48.843Z,148.43
2023-01-02T15:38:27.781Z,154.57
2023-01-02T15:41:04.364Z,146.87
2023-01-02T15:43:59.440Z,145.80
2023-01-02T15:46:37.651Z,144.80
2023-01-02T15:49:15.539Z,154.23
2023-01-02T15:51:54.429Z,156.67
2023-01-02T15:54:31.849Z,162.80
2023-01-02T15:57:19.129Z,159.47
2023-01-02T15:59:58.732Z,161.03
2023-01-02T16:02:48.202Z,158.93
2023-01-02T16:05:26.125Z,160.10
2023-01-02T16:08:05.690Z,164.80
2023-01-02T16:10:47.556Z,164.77
2023-01-02T16:13:45.232Z,163.83
2023-01-02T16:16:21.913Z,158.67
2023-01-02T16:19:04.397Z,158.33
2023-01-02T16:21:44.801Z,159.27
2023-01-02T16:24:27.948Z,153.90
2023-01-02T16:27:06.554Z,177.53
2023-01-02T16:29:48.515Z,167.30
2023-01-02T16:32:33.358Z,166.57
2023-01-02T16:35:22.943Z,166.33
2023-01-02T16:38:03.582Z,167.70
2023-01-02T16:41:01.414Z,177.73
2023-01-02T16:43:43.347Z,165.87
2023-01-02T16:46:20.538Z,163.53
2023-01-02T16:49:01.205Z,173.00
2023-01-02T16:51:39.542Z,179.10
2023-01-02T16:54:17.008Z,176.97
2023-01-02T16:56:54.239Z,170.30
2023-01-02T16:59:28.738Z,175.27
2023-01-02T17:02:02.971Z,176.17
2023-01-02T17:04:37.127Z,176.50
2023-01-02T17:07:12.019Z,170.77
2023-01-02T17:09:48.424Z,177.37
2023-01-02T17:12:24.266Z,173.93
2023-01-02T17:14:58.456Z,191.30
2023-01-02T17:17:32.717Z,174.17
2023-01-02T17:20:06.939Z,182.40
2023-01-02T17:22:41.344Z,184.50
2023-01-02T17:25:19.755Z,188.67
2023-01-02T17:27:55.815Z,185.97
2023-01-02T17:30:29.847Z,186.87
2023-01-02T17:33:04.442Z,188.03
2023-01-02T17:35:40.385Z,175.50
2023-01-02T17:38:14.560Z,176.17
2023-01-02T17:40:49.025Z,182.53
2023-01-02T17:43:25.223Z,187.93
2023-01-02T17:45:59.082Z,190.10
2023-01-02T17:48:34.160Z,188.60
2023-01-02T17:51:08.233Z,186.67
2023-01-02T17:53:42.133Z,181.10
2023-01-02T17:56:21.401Z,193.70
2023-01-02T17:58:58.499Z,185.90
2023-01-02T18:01:32.500Z,187.30
2023-01-02T18:04:06.368Z,195.53
2023-01-02T18:06:40.331Z,194.23
2023-01-02T18:09:14.681Z,189.17
2023-01-02T18:11:49.552Z,192.13
2023-01-02T18:14:29.712Z,190.10
2023-01-02T18:17:06.439Z,197.67
2023-01-02T18:19:40.380Z,191.23
2023-01-02T18:22:18.934Z,183.67
2023-01-02T18:24:58.545Z,188.27
2023-01-02T18:27:34.422Z,187.03
2023-01-02T18:30:17.297Z,190.30
2023-01-02T18:32:52.196Z,189.47
2023-01-02T18:38:28.039Z,192.37
2023-01-02T18:41:02.337Z,192.53
2023-01-02T18:43:39.113Z,189.73
2023-01-02T18:46:20.662Z,192.80
2023-01-02T18:48:56.122Z,191.00
2023-01-02T18:51:30.154Z,193.90
2023-01-02T18:54:04.147Z,190.57
2023-01-02T18:56:39.420Z,187.40
2023-01-02T18:59:23.697Z,187.10
2023-01-02T19:02:04.094Z,191.63
2023-01-02T19:04:41.382Z,182.03
2023-01-02T19:07:26.853Z,199.77
2023-01-02T19:10:13.946Z,186.37
2023-01-02T19:13:08.588Z,193.23
2023-01-02T19:15:47.603Z,192.93
2023-01-02T19:18:34.374Z,197.33
2023-01-02T19:21:22.092Z,189.90
2023-01-02T19:24:01.776Z,190.53
2023-01-02T19:26:39.777Z,190.17
2023-01-02T19:29:21.911Z,187.10
2023-01-02T19:32:00.215Z,187.10
2023-01-02T19:34:45.226Z,190.87
2023-01-02T19:37:35.139Z,193.70
2023-01-02T19:40:14.738Z,192.00
2023-01-02T19:42:53.085Z,199.03
2023-01-02T19:45:28.567Z,190.17
2023-01-02T19:48:02.778Z,189.23
2023-01-02T19:50:40.031Z,189.53
2023-01-02T19:53:14.214Z,194.90
2023-01-02T19:55:47.986Z,189.50
2023-01-02T19:58:22.872Z,188.90
2023-01-02T20:00:57.121Z,182.63
2023-01-02T20:03:31.251Z,195.37
2023-01-02T20:06:07.324Z,188.80
2023-01-02T20:08:43.644Z,195.37
2023-01-02T20:11:30.442Z,187.27
2023-01-02T20:14:04.187Z,183.70
2023-01-02T20:16:37.961Z,182.03
2023-01-02T20:19:11.647Z,195.37
2023-01-02T20:21:47.269Z,184.53
2023-01-02T20:24:20.929Z,198.13
2023-01-02T20:26:54.945Z,190.60
2023-01-02T20:29:29.161Z,188.43
2023-01-02T20:32:05.723Z,181.13
2023-01-02T20:34:39.729Z,193.80
2023-01-02T20:37:22.572Z,202.63
2023-01-02T20:39:57.668Z,204.83
2023-01-02T20:42:31.726Z,198.13
2023-01-02T20:45:05.483Z,200.73
2023-01-02T20:47:40.111Z,189.13
2023-01-02T20:50:14.617Z,188.90
2023-01-02T20:52:56.422Z,198.23
2023-01-02T20:55:31.135Z,202.50
2023-01-02T20:58:05.637Z,200.47
2023-01-02T21:00:39.810Z,198.87
2023-01-02T21:03:13.940Z,198.20
2023-01-02T21:05:48.061Z,197.83
2023-01-02T21:08:24.128Z,192.60
2023-01-02T21:10:58.126Z,188.30
2023-01-02T21:13:32.166Z,195.80
2023-01-02T21:16:06.722Z,201.40
2023-01-02T21:18:42.130Z,191.60
2023-01-02T21:21:19.428Z,204.70
2023-01-02T21:23:55.686Z,196.63
2023-01-02T21:26:29.527Z,191.50
2023-01-02T21:29:04.371Z,209.97
2023-01-02T21:31:38.779Z,202.03
2023-01-02T21:34:15.036Z,198.77
2023-01-02T21:36:48.760Z,195.77
2023-01-02T21:39:24.678Z,191.07
2023-01-02T21:42:14.670Z,194.77
2023-01-02T21:44:49.690Z,194.90
2023-01-02T21:47:23.583Z,184.83
2023-01-02T21:49:57.738Z,194.97
2023-01-02T21:52:31.624Z,186.40
2023-01-02T21:55:07.896Z,187.87
2023-01-02T21:58:13.245Z,176.67
2023-01-02T22:00:36.007Z,190.10
2023-01-02T22:03:10.528Z,181.67
2023-01-02T22:05:44.914Z,187.10
2023-01-02T22:08:18.909Z,177.30
2023-01-02T22:11:14.694Z,177.60
2023-01-02T22:13:52.399Z,173.37
2023-01-02T22:16:26.408Z,175.43
2023-01-02T22:19:00.254Z,173.33
2023-01-02T22:21:35.275Z,177.47
2023-01-02T22:24:09.249Z,165.40
2023-01-02T22:26:46.217Z,181.60
2023-01-02T22:29:24.110Z,170.00
2023-01-02T22:32:01.466Z,175.20
2023-01-02T22:34:37.595Z,163.00
2023-01-02T22:37:13.666Z,173.40
2023-01-02T22:39:49.480Z,179.97
2023-01-02T22:45:41.488Z,179.63
2023-01-02T22:48:22.794Z,164.60
2023-01-02T22:51:00.520Z,168.80
2023-01-02T22:53:35.891Z,172.83
2023-01-02T22:56:17.230Z,168.40
2023-01-02T22:58:53.799Z,170.40
2023-01-02T23:01:33.647Z,175.30
2023-01-02T23:04:07.847Z,177.60
2023-01-02T23:07:13.696Z,177.53
2023-01-02T23:09:35.593Z,169.03
2023-01-02T23:12:09.565Z,164.40
2023-01-02T23:14:45.527Z,164.17
2023-01-02T23:17:35.678Z,165.60
2023-01-02T23:20:10.331Z,170.07
2023-01-02T23:22:44.375Z,173.97
2023-01-02T23:25:18.262Z,172.40
2023-01-02T23:27:52.734Z,173.57
2023-01-02T23:30:28.942Z,178.67
2023-01-02T23:33:02.759Z,167.70
2023-01-02T23:35:36.743Z,165.83
2023-01-02T23:38:10.710Z,175.87
2023-01-02T23:40:44.823Z,174.77
2023-01-02T23:43:19.070Z,170.77
2023-01-02T23:45:55.263Z,165.77
2023-01-02T23:48:29.191Z,168.23
2023-01-02T23:51:03.983Z,166.13
2023-01-02T23:53:38.130Z,172.57
2023-01-02T23:56:20.924Z,164.43
2023-01-02T23:58:56.215Z,171.60
